createdAt,value
2018-11-21T00:01:46.809Z,4.30
2018-11-21T00:04:15.840Z,4.30
2018-11-21T00:06:45.143Z,4.40
2018-11-21T00:09:14.159Z,4.30
2018-11-21T00:11:43.152Z,4.30
2018-11-21T00:14:12.152Z,4.30
2018-11-21T00:16:41.249Z,4.40
2018-11-21T00:19:10.372Z,4.40
2018-11-21T00:21:39.347Z,4.40
2018-11-21T00:24:08.376Z,4.40
2018-11-21T00:26:37.392Z,4.40
2018-11-21T00:29:06.449Z,4.40
2018-11-21T00:31:35.481Z,4.40
2018-11-21T00:34:04.520Z,4.40
2018-11-21T00:36:33.594Z,4.40
2018-11-21T00:39:02.568Z,4.40
2018-11-21T00:41:31.705Z,4.50
2018-11-21T00:44:00.661Z,4.50
2018-11-21T00:46:31.159Z,4.50
2018-11-21T00:49:00.159Z,4.50
2018-11-21T00:51:29.160Z,4.50
2018-11-21T00:53:58.217Z,4.40
2018-11-21T00:56:27.165Z,4.50
2018-11-21T00:58:56.304Z,4.50
2018-11-21T01:01:25.285Z,4.50
2018-11-21T01:03:54.261Z,4.40
2018-11-21T01:06:23.271Z,4.40
2018-11-21T01:08:52.276Z,4.40
2018-11-21T01:11:21.456Z,4.40
2018-11-21T01:13:50.461Z,4.40
2018-11-21T01:16:19.439Z,4.40
2018-11-21T01:18:48.459Z,4.40
2018-11-21T01:21:17.439Z,4.40
2018-11-21T01:23:46.446Z,4.40
2018-11-21T01:26:15.530Z,4.40
2018-11-21T01:28:44.564Z,4.40
2018-11-21T01:31:13.564Z,4.40
2018-11-21T01:33:42.543Z,4.40
2018-11-21T01:36:11.589Z,4.40
2018-11-21T01:38:40.658Z,4.30
2018-11-21T01:41:09.731Z,4.20
2018-11-21T01:43:38.717Z,4.10
2018-11-21T01:46:07.729Z,4.00
2018-11-21T01:48:36.922Z,3.90
2018-11-21T01:51:05.938Z,3.80
2018-11-21T01:53:35.252Z,3.80
2018-11-21T01:56:04.458Z,3.70
2018-11-21T01:58:33.460Z,3.70
2018-11-21T02:01:02.584Z,3.70
2018-11-21T02:03:31.584Z,3.60
2018-11-21T02:06:00.667Z,3.60
2018-11-21T02:08:29.656Z,3.60
2018-11-21T02:10:58.660Z,3.50
2018-11-21T02:13:27.716Z,3.40
2018-11-21T02:15:56.704Z,3.30
2018-11-21T02:18:25.705Z,3.20
2018-11-21T02:20:54.720Z,3.20
2018-11-21T02:23:23.790Z,3.20
2018-11-21T02:25:52.850Z,3.10
2018-11-21T02:28:21.876Z,3.20
2018-11-21T02:30:51.056Z,3.20
2018-11-21T02:33:20.065Z,3.10
2018-11-21T02:35:49.127Z,3.10
2018-11-21T02:38:18.301Z,3.00
2018-11-21T02:40:47.329Z,3.10
2018-11-21T02:43:16.372Z,3.10
2018-11-21T02:45:45.576Z,3.10
2018-11-21T02:48:14.595Z,3.10
2018-11-21T02:50:43.579Z,3.00
2018-11-21T02:53:12.757Z,3.00
2018-11-21T02:55:41.886Z,3.00
2018-11-21T02:58:13.870Z,2.90
2018-11-21T03:00:43.080Z,2.90
2018-11-21T03:03:12.107Z,2.90
2018-11-21T03:05:41.120Z,2.80
2018-11-21T03:08:10.155Z,2.80
2018-11-21T03:10:39.192Z,2.80
2018-11-21T03:13:08.267Z,2.80
2018-11-21T03:15:37.300Z,2.80
2018-11-21T03:18:06.328Z,2.70
2018-11-21T03:20:35.319Z,2.70
2018-11-21T03:23:04.352Z,2.70
2018-11-21T03:25:33.553Z,2.60
2018-11-21T03:28:02.549Z,2.60
2018-11-21T03:30:31.903Z,2.60
2018-11-21T03:33:00.905Z,2.50
2018-11-21T03:35:30.095Z,2.50
2018-11-21T03:37:59.118Z,2.50
2018-11-21T03:40:28.123Z,2.50
2018-11-21T03:42:57.159Z,2.40
2018-11-21T03:45:26.178Z,2.40
2018-11-21T03:47:55.187Z,2.30
2018-11-21T03:50:24.209Z,2.30
2018-11-21T03:52:53.220Z,2.40
2018-11-21T03:55:22.232Z,2.40
2018-11-21T03:57:51.223Z,2.40
2018-11-21T04:00:20.241Z,2.30
2018-11-21T04:02:49.219Z,2.30
2018-11-21T04:05:18.262Z,2.20
2018-11-21T04:07:47.238Z,2.20
2018-11-21T04:10:16.432Z,2.10
2018-11-21T04:12:45.469Z,2.10
2018-11-21T04:15:14.595Z,2.10
2018-11-21T04:17:43.592Z,2.10
2018-11-21T04:20:12.618Z,2.10
2018-11-21T04:22:41.687Z,2.10
2018-11-21T04:25:11.957Z,2.20
2018-11-21T04:27:41.364Z,2.20
2018-11-21T04:30:12.474Z,2.30
2018-11-21T04:32:41.768Z,2.30
2018-11-21T04:35:10.769Z,2.30
2018-11-21T04:37:39.799Z,2.40
2018-11-21T04:40:08.888Z,2.50
2018-11-21T04:42:38.343Z,2.60
2018-11-21T04:45:08.818Z,2.60
2018-11-21T04:47:37.840Z,2.70
2018-11-21T04:50:07.367Z,2.70
2018-11-21T04:52:36.408Z,2.70
2018-11-21T04:55:06.807Z,2.70
2018-11-21T04:57:36.339Z,2.70
2018-11-21T05:00:07.645Z,2.70
2018-11-21T05:02:36.663Z,2.70
2018-11-21T05:05:07.520Z,2.70
2018-11-21T05:07:36.554Z,2.70
2018-11-21T05:10:06.697Z,2.70
2018-11-21T05:12:36.100Z,2.60
2018-11-21T05:15:05.807Z,2.60
2018-11-21T05:17:34.866Z,2.60
2018-11-21T05:20:03.926Z,2.50
2018-11-21T05:22:32.966Z,2.40
2018-11-21T05:25:01.987Z,2.30
2018-11-21T05:27:31.054Z,2.30
2018-11-21T05:30:00.098Z,2.20
2018-11-21T05:32:29.092Z,2.10
2018-11-21T05:34:58.372Z,2.00
2018-11-21T05:37:27.393Z,2.00
2018-11-21T05:39:56.397Z,1.90
2018-11-21T05:42:25.416Z,1.90
2018-11-21T05:44:54.501Z,1.80
2018-11-21T05:47:23.487Z,1.80
2018-11-21T05:49:52.543Z,1.80
2018-11-21T05:52:21.561Z,1.80
2018-11-21T05:54:50.561Z,1.80
2018-11-21T05:57:19.765Z,1.90
2018-11-21T05:59:48.822Z,1.90
2018-11-21T06:02:18.287Z,1.90
2018-11-21T06:04:47.417Z,1.80
2018-11-21T06:07:16.662Z,1.80
2018-11-21T06:09:45.733Z,1.80
2018-11-21T06:12:14.759Z,1.70
2018-11-21T06:14:43.801Z,1.70
2018-11-21T06:17:13.087Z,1.70
2018-11-21T06:19:42.130Z,1.70
2018-11-21T06:22:11.161Z,1.70
2018-11-21T06:24:40.156Z,1.70
2018-11-21T06:27:09.423Z,1.70
2018-11-21T06:29:38.775Z,1.70
2018-11-21T06:32:07.816Z,1.60
2018-11-21T06:34:37.041Z,1.60
2018-11-21T06:37:06.047Z,1.60
2018-11-21T06:39:35.084Z,1.60
2018-11-21T06:42:04.095Z,1.60
2018-11-21T06:44:33.293Z,1.60
2018-11-21T06:47:02.481Z,1.60
2018-11-21T06:49:31.506Z,1.60
2018-11-21T06:52:00.700Z,1.60
2018-11-21T06:54:29.761Z,1.70
2018-11-21T06:56:58.808Z,1.70
2018-11-21T06:59:47.171Z,1.70
2018-11-21T07:02:16.239Z,1.70
2018-11-21T07:04:45.240Z,1.70
2018-11-21T07:07:14.368Z,1.60
2018-11-21T07:09:44.868Z,1.60
2018-11-21T07:12:13.908Z,1.60
2018-11-21T07:14:43.113Z,1.70
2018-11-21T07:17:12.299Z,1.60
2018-11-21T07:19:41.280Z,1.60
2018-11-21T07:22:10.305Z,1.60
2018-11-21T07:24:39.336Z,1.60
2018-11-21T07:27:08.560Z,1.60
2018-11-21T07:29:37.627Z,1.60
2018-11-21T07:32:06.663Z,1.50
2018-11-21T07:34:35.695Z,1.50
2018-11-21T07:37:04.688Z,1.60
2018-11-21T07:39:33.749Z,1.60
2018-11-21T07:42:04.107Z,1.60
2018-11-21T07:44:33.101Z,1.70
2018-11-21T07:47:02.111Z,1.70
2018-11-21T07:49:31.153Z,1.80
2018-11-21T07:52:00.173Z,1.80
2018-11-21T07:54:29.344Z,1.90
2018-11-21T07:57:31.747Z,1.90
2018-11-21T08:00:58.459Z,2.00
2018-11-21T08:03:29.235Z,2.00
2018-11-21T08:06:07.295Z,2.00
2018-11-21T08:08:55.489Z,2.10
2018-11-21T08:11:51.363Z,2.10
2018-11-21T08:14:38.223Z,2.20
2018-11-21T08:17:19.015Z,2.20
2018-11-21T08:20:07.374Z,2.30
2018-11-21T08:22:54.393Z,2.30
2018-11-21T08:25:54.701Z,2.50
2018-11-21T08:28:30.680Z,2.50
2018-11-21T08:31:00.009Z,2.60
2018-11-21T08:33:33.878Z,2.70
2018-11-21T08:35:59.288Z,2.70
2018-11-21T08:38:28.451Z,2.80
2018-11-21T08:40:57.468Z,2.80
2018-11-21T08:43:26.462Z,2.90
2018-11-21T08:45:55.558Z,3.00
2018-11-21T08:48:24.960Z,3.00
2018-11-21T08:50:54.160Z,3.00
2018-11-21T08:53:23.573Z,3.10
2018-11-21T08:55:52.562Z,3.20
2018-11-21T08:58:21.744Z,3.30
2018-11-21T09:00:50.962Z,3.40
2018-11-21T09:03:20.133Z,3.50
2018-11-21T09:05:49.182Z,3.50
2018-11-21T09:08:18.187Z,3.50
2018-11-21T09:10:47.177Z,3.50
2018-11-21T09:13:16.343Z,3.50
2018-11-21T09:15:45.857Z,3.70
2018-11-21T09:18:15.017Z,3.70
2018-11-21T09:20:44.135Z,3.80
2018-11-21T09:23:13.127Z,4.00
2018-11-21T09:25:42.175Z,4.10
2018-11-21T09:28:11.238Z,4.20
2018-11-21T09:30:40.287Z,4.30
2018-11-21T09:33:09.340Z,4.50
2018-11-21T09:35:38.364Z,4.60
2018-11-21T09:38:07.373Z,4.70
2018-11-21T09:40:36.442Z,4.80
2018-11-21T09:43:05.952Z,5.00
2018-11-21T09:45:34.983Z,5.00
2018-11-21T09:48:04.054Z,5.00
2018-11-21T09:50:33.990Z,5.10
2018-11-21T09:53:03.362Z,5.20
2018-11-21T09:55:32.418Z,5.30
2018-11-21T09:58:01.506Z,5.40
2018-11-21T10:01:07.240Z,5.40
2018-11-21T10:03:37.545Z,5.30
2018-11-21T10:06:23.886Z,5.40
2018-11-21T10:08:54.592Z,5.50
2018-11-21T10:11:23.670Z,5.60
2018-11-21T10:13:52.985Z,5.70
2018-11-21T10:16:22.048Z,5.80
2018-11-21T10:18:52.764Z,5.90
2018-11-21T10:21:23.494Z,5.80
2018-11-21T10:23:52.851Z,5.90
2018-11-21T10:26:22.054Z,5.90
2018-11-21T10:28:52.074Z,5.90
2018-11-21T10:31:21.229Z,5.90
2018-11-21T10:33:50.636Z,5.80
2018-11-21T10:36:19.706Z,5.80
2018-11-21T10:38:48.881Z,5.70
2018-11-21T10:41:17.905Z,5.80
2018-11-21T10:43:47.014Z,5.70
2018-11-21T10:46:16.087Z,5.70
2018-11-21T10:48:45.290Z,5.60
2018-11-21T10:51:15.047Z,5.60
2018-11-21T10:53:43.385Z,5.70
2018-11-21T10:56:12.608Z,5.80
2018-11-21T10:58:41.776Z,5.80
2018-11-21T11:01:24.453Z,5.90
2018-11-21T11:03:59.139Z,6.00
2018-11-21T11:06:46.231Z,6.00
2018-11-21T11:09:49.673Z,6.00
2018-11-21T11:12:37.898Z,5.90
2018-11-21T11:15:38.135Z,5.90
2018-11-21T11:18:29.329Z,6.00
2018-11-21T11:21:16.339Z,6.00
2018-11-21T11:24:12.902Z,6.00
2018-11-21T11:26:50.088Z,6.10
2018-11-21T11:29:38.359Z,6.10
2018-11-21T11:32:35.580Z,6.10
2018-11-21T11:35:22.863Z,6.10
2018-11-21T11:38:13.411Z,6.20
2018-11-21T11:41:04.681Z,6.10
2018-11-21T11:43:51.733Z,6.10
2018-11-21T11:46:52.189Z,6.20
2018-11-21T11:49:39.594Z,6.20
2018-11-21T11:52:42.968Z,6.20
2018-11-21T11:55:37.245Z,6.20
2018-11-21T11:58:25.450Z,6.20
2018-11-21T12:01:07.410Z,6.20
2018-11-21T12:03:57.813Z,6.20
2018-11-21T12:06:49.184Z,6.20
2018-11-21T12:09:49.358Z,6.20
2018-11-21T12:12:44.045Z,6.20
2018-11-21T12:15:31.206Z,6.30
2018-11-21T12:18:34.742Z,6.30
2018-11-21T12:21:22.931Z,6.30
2018-11-21T12:24:11.097Z,6.30
2018-11-21T12:27:08.539Z,6.30
2018-11-21T12:30:03.489Z,6.40
2018-11-21T12:32:50.491Z,6.40
2018-11-21T12:35:44.812Z,6.40
2018-11-21T12:38:36.180Z,6.50
2018-11-21T12:41:27.489Z,6.40
2018-11-21T12:44:14.838Z,6.40
2018-11-21T12:47:04.928Z,6.40
2018-11-21T12:49:53.171Z,6.40
2018-11-21T12:52:50.274Z,6.40
2018-11-21T12:55:50.737Z,6.40
2018-11-21T12:58:37.797Z,6.40
2018-11-21T13:01:32.217Z,6.40
2018-11-21T13:04:20.514Z,6.30
2018-11-21T13:07:11.624Z,6.30
2018-11-21T13:10:08.224Z,6.40
2018-11-21T13:13:02.480Z,6.40
2018-11-21T13:16:02.722Z,6.40
2018-11-21T13:19:06.135Z,6.40
2018-11-21T13:21:58.394Z,6.50
2018-11-21T13:24:45.837Z,6.50
2018-11-21T13:27:32.915Z,6.60
2018-11-21T13:30:24.272Z,6.60
2018-11-21T13:33:04.343Z,6.60
2018-11-21T13:35:46.027Z,6.60
2018-11-21T13:38:43.845Z,6.60
2018-11-21T13:41:32.050Z,6.60
2018-11-21T13:44:26.247Z,6.60
2018-11-21T13:47:17.395Z,6.60
2018-11-21T13:50:05.328Z,6.60
